EZY89DB EGCC-EGJJ
Flight info
| Callsign | EZY89DB |
|---|---|
| Flight time | N/A |
| Altitude | 23000 |
| Route | ASMIM DCT NOKIN P17 BEPHE/N0358F220 DCT OSSEP DCT ELNIF DCT ZESPE DCT DAWLY DCT ABBEW/N0350F210 N90 ENHEL N862 SKERY |
| Aircraft | A320/M-SDE2E3FGHIRWXY/LB1 |
Departure
| Time | N/A |
|---|---|
| Airport | Manchester Airport (EGCC) |
Arrival
| Time | 2026-05-05 18:46 |
|---|---|
| Airport | Jersey Airport (EGJJ) |
| Time | Latitude | Longitude | Altitude | Speed | Heading |
|---|---|---|---|---|---|
| 2026-05-05 17:48 | 52.33065 | -2.78217 | 23023 ft | 365 kts | 185° |
| 2026-05-05 17:48 | 52.30527 | -2.78431 | 23023 ft | 365 kts | 185° |
| 2026-05-05 17:48 | 52.27990 | -2.78650 | 23021 ft | 365 kts | 185° |
| 2026-05-05 17:49 | 52.25455 | -2.78871 | 23019 ft | 365 kts | 185° |
| 2026-05-05 17:49 | 52.22917 | -2.79090 | 23020 ft | 365 kts | 185° |
| 2026-05-05 17:49 | 52.20382 | -2.79310 | 23022 ft | 365 kts | 185° |
| 2026-05-05 17:49 | 52.17847 | -2.79528 | 23022 ft | 365 kts | 185° |
| 2026-05-05 17:50 | 52.15311 | -2.79741 | 23018 ft | 365 kts | 185° |
| 2026-05-05 17:50 | 52.12779 | -2.79953 | 23015 ft | 364 kts | 185° |
| 2026-05-05 17:50 | 52.10247 | -2.80167 | 23011 ft | 364 kts | 185° |
| 2026-05-05 17:50 | 52.07717 | -2.80384 | 23009 ft | 364 kts | 185° |
| 2026-05-05 17:51 | 52.05188 | -2.80600 | 23012 ft | 364 kts | 185° |
| 2026-05-05 17:51 | 52.02656 | -2.80816 | 23014 ft | 364 kts | 185° |
| 2026-05-05 17:51 | 52.00126 | -2.81028 | 23013 ft | 364 kts | 185° |
| 2026-05-05 17:51 | 51.97593 | -2.81242 | 23018 ft | 364 kts | 185° |
| 2026-05-05 17:52 | 51.95064 | -2.81455 | 23014 ft | 364 kts | 185° |
| 2026-05-05 17:52 | 51.92532 | -2.81668 | 23018 ft | 364 kts | 185° |
| 2026-05-05 17:52 | 51.90000 | -2.81882 | 23020 ft | 364 kts | 185° |
| 2026-05-05 17:52 | 51.87470 | -2.82095 | 23022 ft | 364 kts | 185° |
| 2026-05-05 17:53 | 51.84940 | -2.82332 | 23025 ft | 364 kts | 186° |
| 2026-05-05 17:53 | 51.82422 | -2.82733 | 23024 ft | 363 kts | 188° |
| 2026-05-05 17:53 | 51.79918 | -2.83264 | 23027 ft | 363 kts | 190° |
| 2026-05-05 17:53 | 51.77420 | -2.83860 | 23025 ft | 363 kts | 190° |
| 2026-05-05 17:54 | 51.74920 | -2.84465 | 23026 ft | 363 kts | 190° |
| 2026-05-05 17:54 | 51.72418 | -2.85054 | 23024 ft | 363 kts | 190° |
| 2026-05-05 17:54 | 51.69949 | -2.85610 | 23018 ft | 363 kts | 189° |
| 2026-05-05 17:54 | 51.67443 | -2.86158 | 23025 ft | 363 kts | 189° |
| 2026-05-05 17:55 | 51.64936 | -2.86694 | 23022 ft | 364 kts | 189° |
| 2026-05-05 17:55 | 51.62428 | -2.87226 | 23015 ft | 364 kts | 189° |
| 2026-05-05 17:55 | 51.59920 | -2.87757 | 23014 ft | 364 kts | 189° |
| 2026-05-05 17:55 | 51.57409 | -2.88290 | 23006 ft | 364 kts | 189° |
| 2026-05-05 17:56 | 51.54930 | -2.89026 | 22995 ft | 362 kts | 198° |
| 2026-05-05 17:56 | 51.52558 | -2.90357 | 22977 ft | 361 kts | 202° |
| 2026-05-05 17:56 | 51.50208 | -2.91774 | 22970 ft | 361 kts | 202° |
| 2026-05-05 17:56 | 51.47857 | -2.93191 | 22984 ft | 361 kts | 202° |
| 2026-05-05 17:57 | 51.45504 | -2.94609 | 22982 ft | 361 kts | 202° |
| 2026-05-05 17:57 | 51.43145 | -2.96020 | 22982 ft | 362 kts | 202° |
| 2026-05-05 17:57 | 51.40788 | -2.97431 | 22970 ft | 362 kts | 202° |
| 2026-05-05 17:57 | 51.38430 | -2.98845 | 22970 ft | 362 kts | 202° |
| 2026-05-05 17:58 | 51.36069 | -3.00258 | 22980 ft | 362 kts | 202° |
| 2026-05-05 17:58 | 51.33707 | -3.01668 | 22981 ft | 362 kts | 202° |
| 2026-05-05 17:58 | 51.32142 | -3.02603 | 22980 ft | 363 kts | 202° |
| 2026-05-05 17:58 | 51.28979 | -3.04488 | 22986 ft | 363 kts | 202° |
| 2026-05-05 17:59 | 51.26613 | -3.05898 | 22967 ft | 363 kts | 202° |
| 2026-05-05 17:59 | 51.24243 | -3.07308 | 22974 ft | 363 kts | 202° |
| 2026-05-05 17:59 | 51.22672 | -3.08241 | 22978 ft | 364 kts | 202° |
| 2026-05-05 17:59 | 51.20301 | -3.09644 | 22966 ft | 364 kts | 202° |
| 2026-05-05 18:00 | 51.17925 | -3.11044 | 22963 ft | 364 kts | 202° |
| 2026-05-05 18:00 | 51.15550 | -3.12444 | 22973 ft | 364 kts | 202° |
| 2026-05-05 18:00 | 51.13174 | -3.13846 | 22964 ft | 364 kts | 202° |
| 2026-05-05 18:00 | 51.10798 | -3.15251 | 22965 ft | 364 kts | 202° |
| 2026-05-05 18:01 | 51.08422 | -3.16657 | 22975 ft | 365 kts | 202° |
| 2026-05-05 18:01 | 51.06043 | -3.18062 | 22968 ft | 365 kts | 202° |
| 2026-05-05 18:01 | 51.03661 | -3.19465 | 22967 ft | 365 kts | 202° |
| 2026-05-05 18:01 | 51.01279 | -3.20868 | 22967 ft | 365 kts | 202° |
| 2026-05-05 18:02 | 50.98898 | -3.22270 | 22968 ft | 365 kts | 202° |
| 2026-05-05 18:02 | 50.96517 | -3.23666 | 22968 ft | 365 kts | 202° |
| 2026-05-05 18:02 | 50.94132 | -3.25062 | 22973 ft | 365 kts | 202° |
| 2026-05-05 18:02 | 50.91746 | -3.26458 | 22968 ft | 365 kts | 202° |
| 2026-05-05 18:03 | 50.89359 | -3.27855 | 22968 ft | 366 kts | 202° |
| 2026-05-05 18:03 | 50.86973 | -3.29246 | 22971 ft | 366 kts | 202° |
| 2026-05-05 18:03 | 50.84584 | -3.30638 | 22973 ft | 366 kts | 202° |
| 2026-05-05 18:03 | 50.82193 | -3.32033 | 22969 ft | 366 kts | 202° |
| 2026-05-05 18:04 | 50.79808 | -3.33425 | 22967 ft | 366 kts | 202° |
| 2026-05-05 18:04 | 50.77421 | -3.34815 | 22967 ft | 366 kts | 202° |
| 2026-05-05 18:04 | 50.75033 | -3.36204 | 22969 ft | 366 kts | 202° |
| 2026-05-05 18:04 | 50.72640 | -3.37593 | 22964 ft | 366 kts | 202° |
| 2026-05-05 18:05 | 50.70247 | -3.38980 | 22964 ft | 366 kts | 202° |
| 2026-05-05 18:05 | 50.67853 | -3.40367 | 22969 ft | 367 kts | 202° |
| 2026-05-05 18:05 | 50.65460 | -3.41752 | 22965 ft | 367 kts | 202° |
| 2026-05-05 18:05 | 50.63065 | -3.43133 | 22964 ft | 367 kts | 202° |
| 2026-05-05 18:06 | 50.60669 | -3.44517 | 22964 ft | 367 kts | 202° |
| 2026-05-05 18:06 | 50.59081 | -3.45432 | 22964 ft | 367 kts | 201° |
| 2026-05-05 18:06 | 50.55755 | -3.46691 | 22962 ft | 370 kts | 188° |
| 2026-05-05 18:06 | 50.53191 | -3.47049 | 22958 ft | 371 kts | 182° |
| 2026-05-05 18:07 | 50.50612 | -3.46750 | 22959 ft | 373 kts | 171° |
| 2026-05-05 18:07 | 50.48108 | -3.45652 | 22959 ft | 375 kts | 160° |
| 2026-05-05 18:07 | 50.45750 | -3.43880 | 22958 ft | 376 kts | 154° |
| 2026-05-05 18:07 | 50.43422 | -3.41993 | 22955 ft | 377 kts | 154° |
| 2026-05-05 18:08 | 50.41092 | -3.40107 | 22957 ft | 377 kts | 154° |
| 2026-05-05 18:08 | 50.38765 | -3.38222 | 22956 ft | 377 kts | 154° |
| 2026-05-05 18:08 | 50.36432 | -3.36336 | 22963 ft | 377 kts | 154° |
| 2026-05-05 18:08 | 50.34103 | -3.34455 | 22960 ft | 377 kts | 154° |
| 2026-05-05 18:09 | 50.31771 | -3.32572 | 22963 ft | 377 kts | 154° |
| 2026-05-05 18:09 | 50.29469 | -3.30716 | 22962 ft | 377 kts | 154° |
| 2026-05-05 18:09 | 50.27137 | -3.28837 | 22964 ft | 377 kts | 154° |
| 2026-05-05 18:09 | 50.24770 | -3.26937 | 22964 ft | 377 kts | 154° |
| 2026-05-05 18:10 | 50.22378 | -3.25408 | 22962 ft | 376 kts | 164° |
| 2026-05-05 18:10 | 50.19806 | -3.24415 | 22958 ft | 376 kts | 168° |
| 2026-05-05 18:10 | 50.17281 | -3.23512 | 22962 ft | 383 kts | 168° |
| 2026-05-05 18:10 | 50.14637 | -3.22568 | 22845 ft | 383 kts | 168° |
| 2026-05-05 18:11 | 50.12056 | -3.21644 | 22105 ft | 379 kts | 167° |
| 2026-05-05 18:11 | 50.09501 | -3.20728 | 21356 ft | 376 kts | 167° |
| 2026-05-05 18:11 | 50.06967 | -3.19820 | 20747 ft | 370 kts | 167° |
| 2026-05-05 18:11 | 50.04527 | -3.18944 | 20308 ft | 360 kts | 166° |
| 2026-05-05 18:12 | 50.02118 | -3.18074 | 19870 ft | 351 kts | 166° |
| 2026-05-05 18:12 | 49.99836 | -3.16884 | 19450 ft | 342 kts | 153° |
| 2026-05-05 18:12 | 49.97812 | -3.15063 | 19033 ft | 332 kts | 144° |
| 2026-05-05 18:12 | 49.95910 | -3.13095 | 18647 ft | 325 kts | 145° |
| 2026-05-05 18:13 | 49.94044 | -3.11183 | 18264 ft | 318 kts | 145° |
| 2026-05-05 18:13 | 49.92211 | -3.09316 | 17838 ft | 311 kts | 144° |
| 2026-05-05 18:13 | 49.90420 | -3.07497 | 17475 ft | 305 kts | 145° |
| 2026-05-05 18:13 | 49.88650 | -3.05696 | 17114 ft | 304 kts | 144° |
| 2026-05-05 18:14 | 49.86887 | -3.03900 | 16754 ft | 302 kts | 144° |
| 2026-05-05 18:14 | 49.85133 | -3.02114 | 16403 ft | 302 kts | 144° |
| 2026-05-05 18:14 | 49.83377 | -3.00333 | 16046 ft | 301 kts | 144° |
| 2026-05-05 18:14 | 49.81623 | -2.98557 | 15696 ft | 301 kts | 144° |
| 2026-05-05 18:15 | 49.79870 | -2.96777 | 15344 ft | 301 kts | 144° |
| 2026-05-05 18:15 | 49.78118 | -2.94993 | 14990 ft | 301 kts | 144° |
| 2026-05-05 18:15 | 49.76367 | -2.93213 | 14639 ft | 302 kts | 144° |
| 2026-05-05 18:15 | 49.74608 | -2.91432 | 14294 ft | 302 kts | 144° |
| 2026-05-05 18:16 | 49.72847 | -2.89653 | 13933 ft | 303 kts | 144° |
| 2026-05-05 18:16 | 49.71085 | -2.87872 | 13556 ft | 303 kts | 144° |
| 2026-05-05 18:16 | 49.69319 | -2.86089 | 13181 ft | 303 kts | 145° |
| 2026-05-05 18:16 | 49.67560 | -2.84313 | 12821 ft | 302 kts | 145° |
| 2026-05-05 18:17 | 49.65806 | -2.82542 | 12456 ft | 301 kts | 144° |
| 2026-05-05 18:17 | 49.64056 | -2.80776 | 12089 ft | 300 kts | 145° |
| 2026-05-05 18:17 | 49.62308 | -2.79016 | 11721 ft | 300 kts | 145° |
| 2026-05-05 18:17 | 49.60564 | -2.77263 | 11346 ft | 299 kts | 145° |
| 2026-05-05 18:18 | 49.58819 | -2.75510 | 10970 ft | 299 kts | 145° |
| 2026-05-05 18:18 | 49.57076 | -2.73762 | 10594 ft | 299 kts | 145° |
| 2026-05-05 18:18 | 49.55334 | -2.72014 | 10206 ft | 299 kts | 146° |
| 2026-05-05 18:18 | 49.53617 | -2.70292 | 9818 ft | 299 kts | 146° |
| 2026-05-05 18:19 | 49.51875 | -2.68547 | 9392 ft | 299 kts | 145° |
| 2026-05-05 18:19 | 49.50138 | -2.66807 | 8989 ft | 297 kts | 145° |
| 2026-05-05 18:19 | 49.48405 | -2.65077 | 8596 ft | 296 kts | 145° |
| 2026-05-05 18:19 | 49.46688 | -2.63367 | 8226 ft | 293 kts | 145° |
| 2026-05-05 18:20 | 49.44979 | -2.61665 | 7822 ft | 293 kts | 145° |
| 2026-05-05 18:20 | 49.43235 | -2.60054 | 7399 ft | 294 kts | 153° |
| 2026-05-05 18:20 | 49.41380 | -2.58734 | 6966 ft | 294 kts | 153° |
| 2026-05-05 18:20 | 49.39525 | -2.57419 | 6558 ft | 293 kts | 153° |
| 2026-05-05 18:21 | 49.37680 | -2.56112 | 6151 ft | 291 kts | 153° |
| 2026-05-05 18:21 | 49.35845 | -2.54815 | 5686 ft | 291 kts | 153° |
| 2026-05-05 18:21 | 49.34021 | -2.53529 | 5280 ft | 288 kts | 153° |
| 2026-05-05 18:21 | 49.32205 | -2.52247 | 4937 ft | 284 kts | 152° |
| 2026-05-05 18:22 | 49.30416 | -2.50981 | 4501 ft | 283 kts | 152° |
| 2026-05-05 18:22 | 49.28631 | -2.49721 | 4065 ft | 282 kts | 152° |
| 2026-05-05 18:22 | 49.26856 | -2.48474 | 3641 ft | 280 kts | 153° |
| 2026-05-05 18:22 | 49.25095 | -2.47240 | 3290 ft | 276 kts | 152° |
| 2026-05-05 18:23 | 49.23553 | -2.45624 | 2895 ft | 268 kts | 130° |
| 2026-05-05 18:23 | 49.22553 | -2.43296 | 2474 ft | 259 kts | 107° |
| 2026-05-05 18:23 | 49.22225 | -2.40644 | 2073 ft | 251 kts | 86° |
| 2026-05-05 18:23 | 49.22237 | -2.37970 | 2001 ft | 253 kts | 86° |
| 2026-05-05 18:24 | 49.22234 | -2.35268 | 2008 ft | 254 kts | 86° |
| 2026-05-05 18:24 | 49.22226 | -2.32555 | 2006 ft | 256 kts | 86° |
| 2026-05-05 18:24 | 49.22217 | -2.29840 | 2008 ft | 255 kts | 87° |
| 2026-05-05 18:24 | 49.22207 | -2.27163 | 2010 ft | 255 kts | 87° |
| 2026-05-05 18:25 | 49.22196 | -2.24439 | 2282 ft | 258 kts | 86° |
| 2026-05-05 18:25 | 49.22189 | -2.22618 | 2746 ft | 260 kts | 86° |
| 2026-05-05 18:25 | 49.22172 | -2.18953 | 2980 ft | 257 kts | 86° |
| 2026-05-05 18:25 | 49.22156 | -2.16265 | 3003 ft | 244 kts | 86° |
| 2026-05-05 18:26 | 49.22139 | -2.13765 | 3005 ft | 226 kts | 86° |
| 2026-05-05 18:26 | 49.22128 | -2.11420 | 3007 ft | 218 kts | 85° |
| 2026-05-05 18:26 | 49.22121 | -2.09111 | 3009 ft | 217 kts | 85° |
| 2026-05-05 18:26 | 49.22114 | -2.06806 | 3009 ft | 217 kts | 86° |
| 2026-05-05 18:27 | 49.21859 | -2.04517 | 3008 ft | 222 kts | 105° |
| 2026-05-05 18:27 | 49.21124 | -2.02408 | 2887 ft | 227 kts | 121° |
| 2026-05-05 18:27 | 49.20225 | -2.00458 | 2763 ft | 221 kts | 120° |
| 2026-05-05 18:27 | 49.19360 | -1.98572 | 2630 ft | 212 kts | 120° |
| 2026-05-05 18:28 | 49.18281 | -1.94751 | 2374 ft | 191 kts | 78° |
| 2026-05-05 18:28 | 49.18743 | -1.92904 | 2252 ft | 183 kts | 48° |
| 2026-05-05 18:28 | 49.19706 | -1.91761 | 2130 ft | 177 kts | 20° |
| 2026-05-05 18:29 | 49.20922 | -1.91531 | 2048 ft | 179 kts | 351° |
| 2026-05-05 18:29 | 49.22048 | -1.92329 | 2008 ft | 183 kts | 320° |
| 2026-05-05 18:29 | 49.22729 | -1.93981 | 2008 ft | 189 kts | 288° |
| 2026-05-05 18:29 | 49.22744 | -1.95916 | 2030 ft | 177 kts | 267° |
| 2026-05-05 18:30 | 49.22593 | -1.97698 | 1995 ft | 161 kts | 269° |
| 2026-05-05 18:30 | 49.22456 | -1.99350 | 1998 ft | 153 kts | 269° |
| 2026-05-05 18:30 | 49.22318 | -2.01091 | 1993 ft | 171 kts | 268° |
| 2026-05-05 18:30 | 49.22174 | -2.02811 | 1998 ft | 157 kts | 268° |
| 2026-05-05 18:31 | 49.22042 | -2.04413 | 2011 ft | 149 kts | 269° |
| 2026-05-05 18:31 | 49.21915 | -2.05970 | 1906 ft | 146 kts | 269° |
| 2026-05-05 18:31 | 49.21789 | -2.07504 | 1748 ft | 145 kts | 270° |
| 2026-05-05 18:31 | 49.21664 | -2.09030 | 1559 ft | 145 kts | 268° |
| 2026-05-05 18:32 | 49.21539 | -2.10546 | 1381 ft | 142 kts | 268° |
| 2026-05-05 18:32 | 49.21417 | -2.12032 | 1172 ft | 141 kts | 268° |
| 2026-05-05 18:32 | 49.21295 | -2.13513 | 975 ft | 139 kts | 267° |
| 2026-05-05 18:32 | 49.21166 | -2.15005 | 772 ft | 141 kts | 269° |
| 2026-05-05 18:33 | 49.21041 | -2.16506 | 559 ft | 143 kts | 268° |
| 2026-05-05 18:33 | 49.20920 | -2.17994 | 390 ft | 140 kts | 267° |
| 2026-05-05 18:33 | 49.20802 | -2.19441 | 290 ft | 126 kts | 262° |
| 2026-05-05 18:33 | 49.20638 | -2.20829 | 566 ft | 144 kts | 266° |
| 2026-05-05 18:34 | 49.20487 | -2.22408 | 1011 ft | 157 kts | 266° |
| 2026-05-05 18:34 | 49.20330 | -2.24179 | 1405 ft | 176 kts | 267° |
| 2026-05-05 18:34 | 49.20157 | -2.26127 | 1764 ft | 191 kts | 266° |
| 2026-05-05 18:34 | 49.19966 | -2.28175 | 2172 ft | 198 kts | 262° |
| 2026-05-05 18:35 | 49.19294 | -2.30049 | 2646 ft | 210 kts | 225° |
| 2026-05-05 18:35 | 49.17965 | -2.31074 | 2953 ft | 226 kts | 188° |
| 2026-05-05 18:35 | 49.16352 | -2.30930 | 3004 ft | 236 kts | 164° |
| 2026-05-05 18:35 | 49.14770 | -2.30265 | 3008 ft | 236 kts | 160° |
| 2026-05-05 18:36 | 49.13204 | -2.29520 | 3009 ft | 236 kts | 160° |
| 2026-05-05 18:36 | 49.11697 | -2.28586 | 3011 ft | 232 kts | 140° |
| 2026-05-05 18:36 | 49.10707 | -2.26753 | 3011 ft | 221 kts | 105° |
| 2026-05-05 18:36 | 49.10436 | -2.24496 | 3013 ft | 216 kts | 88° |
| 2026-05-05 18:37 | 49.10388 | -2.22212 | 3010 ft | 215 kts | 86° |
| 2026-05-05 18:37 | 49.10369 | -2.19931 | 3009 ft | 214 kts | 85° |
| 2026-05-05 18:37 | 49.10351 | -2.17660 | 3009 ft | 214 kts | 86° |
| 2026-05-05 18:37 | 49.10338 | -2.15385 | 3007 ft | 215 kts | 85° |
| 2026-05-05 18:38 | 49.10326 | -2.13105 | 3010 ft | 215 kts | 85° |
| 2026-05-05 18:38 | 49.10485 | -2.10865 | 3005 ft | 211 kts | 73° |
| 2026-05-05 18:38 | 49.10830 | -2.08691 | 3007 ft | 210 kts | 71° |
| 2026-05-05 18:38 | 49.11200 | -2.06532 | 3009 ft | 210 kts | 71° |
| 2026-05-05 18:39 | 49.11573 | -2.04372 | 3008 ft | 211 kts | 71° |
| 2026-05-05 18:39 | 49.11947 | -2.02213 | 3008 ft | 211 kts | 71° |
| 2026-05-05 18:39 | 49.12323 | -2.00056 | 3006 ft | 210 kts | 71° |
| 2026-05-05 18:39 | 49.12699 | -1.97905 | 2846 ft | 209 kts | 71° |
| 2026-05-05 18:40 | 49.13077 | -1.95763 | 2487 ft | 209 kts | 71° |
| 2026-05-05 18:40 | 49.13448 | -1.93652 | 2158 ft | 209 kts | 71° |
| 2026-05-05 18:40 | 49.13821 | -1.91518 | 2007 ft | 208 kts | 71° |
| 2026-05-05 18:40 | 49.14216 | -1.89355 | 2005 ft | 209 kts | 67° |
| 2026-05-05 18:41 | 49.15009 | -1.87587 | 2004 ft | 201 kts | 33° |
| 2026-05-05 18:41 | 49.16308 | -1.86939 | 2004 ft | 201 kts | 358° |
| 2026-05-05 18:41 | 49.17613 | -1.87651 | 2004 ft | 206 kts | 323° |
| 2026-05-05 18:41 | 49.18497 | -1.89395 | 2005 ft | 211 kts | 304° |
| 2026-05-05 18:42 | 49.19196 | -1.91380 | 2003 ft | 213 kts | 301° |
| 2026-05-05 18:42 | 49.19872 | -1.93394 | 2004 ft | 212 kts | 301° |
| 2026-05-05 18:42 | 49.20536 | -1.95411 | 2007 ft | 212 kts | 301° |
| 2026-05-05 18:42 | 49.21195 | -1.97423 | 2009 ft | 211 kts | 301° |
| 2026-05-05 18:43 | 49.21857 | -1.99424 | 2007 ft | 211 kts | 300° |
| 2026-05-05 18:43 | 49.22241 | -2.01596 | 2006 ft | 217 kts | 274° |
| 2026-05-05 18:43 | 49.22097 | -2.03920 | 2013 ft | 219 kts | 266° |
| 2026-05-05 18:43 | 49.21900 | -2.06200 | 1990 ft | 211 kts | 267° |
| 2026-05-05 18:44 | 49.21722 | -2.08296 | 1938 ft | 189 kts | 268° |
| 2026-05-05 18:44 | 49.21561 | -2.10256 | 1551 ft | 183 kts | 267° |
| 2026-05-05 18:44 | 49.21424 | -2.12070 | 1191 ft | 167 kts | 268° |
| 2026-05-05 18:44 | 49.21269 | -2.13760 | 954 ft | 155 kts | 266° |
| 2026-05-05 18:45 | 49.21129 | -2.15377 | 702 ft | 151 kts | 267° |
| 2026-05-05 18:45 | 49.20994 | -2.16970 | 506 ft | 151 kts | 268° |
| 2026-05-05 18:45 | 49.20876 | -2.18545 | 309 ft | 148 kts | 266° |
| 2026-05-05 18:45 | 49.20779 | -2.19870 | 281 ft | 89 kts | 263° |
| 2026-05-05 18:46 | 49.20724 | -2.20445 | 280 ft | 41 kts | 264° |
| 2026-05-05 18:46 | 49.20679 | -2.20691 | 280 ft | 15 kts | 215° |
| 2026-05-05 18:46 | 49.20637 | -2.20678 | 282 ft | 2 kts | 131° |
| 2026-05-05 18:46 | 49.20625 | -2.20630 | 280 ft | 13 kts | 103° |
| 2026-05-05 18:47 | 49.20613 | -2.20469 | 280 ft | 13 kts | 101° |
| 2026-05-05 18:47 | 49.20588 | -2.20347 | 280 ft | 12 kts | 109° |
| 2026-05-05 18:47 | 49.20561 | -2.20214 | 284 ft | 13 kts | 107° |
| 2026-05-05 18:47 | 49.20540 | -2.20096 | 280 ft | 10 kts | 105° |
| 2026-05-05 18:48 | 49.20517 | -2.19982 | 283 ft | 12 kts | 108° |
| 2026-05-05 18:48 | 49.20466 | -2.19933 | 280 ft | 0 kts | 173° |
| 2026-05-05 18:48 | 49.20463 | -2.19932 | 280 ft | 1 kts | 173° |
| 2026-05-05 18:48 | 49.20441 | -2.19906 | 280 ft | 7 kts | 116° |
| 2026-05-05 18:49 | 49.20457 | -2.19839 | 283 ft | 6 kts | 13° |
| 2026-05-05 18:49 | 49.20485 | -2.19844 | 280 ft | 3 kts | 352° |
| 2026-05-05 18:49 | 49.20486 | -2.19844 | 280 ft | 0 kts | 351° |